Airfield :
LOGIN :

Register | Disclaimer

   EN    FR    IT 

 










Legend :    VFR   Marginal VFR   IFR   Intensive IFR   Very Intensive IFR
Visi :
Ceiling :
>= 8 km
>= 3000ft
5 to 8 km
1000 to 3000 ft
1500m to 5 km
500 to 1000 ft
800 to 1500m
200 to 500 ft
< 800m
< 200 ft
Symbols :   Thunderstorms  Fog  Heavy snow  Heavy precipitations  Wind > 20 kt
SIGMETs :     Misc.  Thunderstorms  Icing  Turbulence  Mountain Waves  Volcanic Ashes






- Airport Elevation : 202 ft
- IATA code : LGW


EGKK - London Gatwick

CURRENT METAR :
  • 080950Z 06007KT 8000 NSC 17/10 Q1024

EXPIRED METARs :
  • 080920Z 05007KT CAVOK 16/09 Q1024
  • 080850Z 07005KT 9000 NSC 15/09 Q1024
  • 080820Z VRB03KT 9000 NSC 14/08 Q1024
  • 080750Z 09003KT 9000 NSC 13/08 Q1024
  • 080720Z VRB02KT CAVOK 12/07 Q1025

TAF TAF EGKK
Valid from the 08 at 06:00 until the 09 at 12:00 UTC


080456Z 0806/0912 08004KT 9999 FEW045
TEMPO 0806/0809 6000
PROB30 0806/0808 0600 FG BKN000
PROB30
TEMPO 0812/0819 7000 SHRA
BECMG 0823/0902 6000
PROB30 0902/0908 0600 FG BKN000



MET'MAP, your aeronautical weather chart ! - Copyright ORBIFLY December 2007 - Disclaimer

ORBIFLY MET'MAP TEAM :

Programming & Development : Alexandra Zaïnal
Concept & original design : Baudouin d'Aumeries
Assistance for programming : Marc-Olivier Méhu
Technical & hardware support : Manuel Goepfert

Contact : metmap@orbifly.com




SOURCES & CREDITS :

   NOAA